Port Lions, Alaska
Current Conditions -  °F | °C
As of 12:53 AM on Sunday 26 Oct 2014 (Local Time) from PADQ Reporting Station
Broken Clouds Broken Clouds  
Wind Chill: 22°   Ceiling: 10000
Heat Index: 28°   Visibility: 10mi
Dew Point: 25°   Wind: 6mph
Humidity: 88%   Direction: 290°WNW
Pressure: 29.84"   Gusts: NA
Location:  57.87°N, 152.88°W
Report Text: PADQ 260853Z 29005KT 10SM SCT075 BKN100 M02/M04 A2984 RMK AO2 SLP105 T10221039 400781039 50000
Loading
Personal Weather Stations






























Interactive Weather Map
Tropical Storm Tracking
New forecast layout! Learn more

10-Day Weather Forecast

Advertisements
Track Severe Weather on mobile